createdAt,value
2023-05-20T00:00:36.446Z,13.50
2023-05-20T00:03:38.341Z,13.50
2023-05-20T00:06:40.265Z,13.40
2023-05-20T00:09:42.159Z,13.50
2023-05-20T00:12:44.196Z,13.40
2023-05-20T00:15:46.027Z,13.40
2023-05-20T00:18:47.812Z,13.30
2023-05-20T00:21:49.568Z,13.30
2023-05-20T00:24:51.367Z,13.20
2023-05-20T00:27:53.190Z,13.20
2023-05-20T00:30:55.022Z,13.20
2023-05-20T00:33:56.743Z,13.10
2023-05-20T00:36:59.092Z,13.10
2023-05-20T00:40:01.043Z,13.00
2023-05-20T00:43:02.826Z,13.10
2023-05-20T00:46:04.871Z,13.10
2023-05-20T00:49:06.811Z,13.00
2023-05-20T00:52:08.932Z,13.00
2023-05-20T00:55:10.899Z,13.00
2023-05-20T00:58:12.895Z,13.00
2023-05-20T01:01:14.804Z,12.90
2023-05-20T01:04:16.746Z,12.80
2023-05-20T01:07:19.671Z,12.80
2023-05-20T01:10:25.327Z,12.80
2023-05-20T01:13:33.813Z,12.80
2023-05-20T01:16:36.469Z,12.70
2023-05-20T01:19:45.464Z,12.70
2023-05-20T01:22:48.691Z,12.60
2023-05-20T01:25:50.403Z,12.70
2023-05-20T01:28:52.458Z,12.60
2023-05-20T01:31:56.995Z,12.60
2023-05-20T01:35:00.260Z,12.60
2023-05-20T01:38:04.212Z,12.60
2023-05-20T01:41:07.255Z,12.50
2023-05-20T01:44:09.844Z,12.50
2023-05-20T01:47:12.054Z,12.50
2023-05-20T01:50:13.842Z,12.50
2023-05-20T01:53:15.780Z,12.50
2023-05-20T01:56:17.546Z,12.50
2023-05-20T01:59:19.405Z,12.60
2023-05-20T02:02:21.233Z,12.60
2023-05-20T02:05:22.996Z,12.50
2023-05-20T02:08:24.764Z,12.50
2023-05-20T02:11:26.596Z,12.40
2023-05-20T02:14:29.597Z,12.40
2023-05-20T02:17:31.664Z,12.40
2023-05-20T02:20:36.526Z,12.50
2023-05-20T02:23:38.239Z,12.50
2023-05-20T02:26:40.017Z,12.40
2023-05-20T02:29:44.224Z,12.40
2023-05-20T02:32:46.730Z,12.40
2023-05-20T02:35:48.575Z,12.40
2023-05-20T02:38:51.100Z,12.40
2023-05-20T02:41:52.824Z,12.30
2023-05-20T02:44:58.354Z,12.30
2023-05-20T02:48:01.114Z,12.30
2023-05-20T02:51:02.991Z,12.20
2023-05-20T02:54:11.453Z,12.20
2023-05-20T02:57:13.471Z,12.10
2023-05-20T03:00:16.428Z,12.20
2023-05-20T03:03:18.554Z,12.10
2023-05-20T03:06:20.459Z,12.00
2023-05-20T03:09:22.274Z,12.00
2023-05-20T03:12:26.180Z,12.00
2023-05-20T03:15:28.101Z,12.00
2023-05-20T03:18:29.996Z,11.90
2023-05-20T03:21:32.451Z,11.90
2023-05-20T03:24:34.687Z,11.90
2023-05-20T03:27:38.003Z,11.90
2023-05-20T03:30:40.952Z,11.70
2023-05-20T03:33:43.047Z,11.70
2023-05-20T03:36:45.082Z,11.80
2023-05-20T03:39:47.089Z,11.70
2023-05-20T03:42:50.964Z,11.70
2023-05-20T03:45:54.659Z,11.60
2023-05-20T03:48:57.875Z,11.70
2023-05-20T03:51:59.742Z,11.60
2023-05-20T03:55:01.992Z,11.70
2023-05-20T03:58:03.975Z,11.70
2023-05-20T04:01:07.745Z,11.70
2023-05-20T04:04:09.680Z,11.70
2023-05-20T04:07:11.872Z,11.80
2023-05-20T04:10:14.012Z,11.80
2023-05-20T04:13:16.416Z,11.80
2023-05-20T04:16:18.577Z,11.80
2023-05-20T04:19:20.452Z,11.90
2023-05-20T04:22:22.733Z,12.00
2023-05-20T04:25:26.053Z,12.00
2023-05-20T04:28:31.745Z,12.10
2023-05-20T04:31:33.677Z,12.00
2023-05-20T04:34:37.339Z,12.10
2023-05-20T04:37:39.438Z,12.10
2023-05-20T04:40:41.895Z,12.20
2023-05-20T04:43:44.047Z,12.20
2023-05-20T04:46:46.117Z,12.20
2023-05-20T04:49:50.330Z,12.20
2023-05-20T04:52:52.204Z,12.10
2023-05-20T04:55:57.333Z,12.10
2023-05-20T04:58:59.873Z,12.20
2023-05-20T05:02:01.778Z,12.20
2023-05-20T05:05:04.148Z,12.30
2023-05-20T05:08:06.979Z,12.30
2023-05-20T05:11:14.240Z,12.40
2023-05-20T05:14:16.766Z,12.50
2023-05-20T05:17:18.680Z,12.60
2023-05-20T05:20:20.972Z,12.60
2023-05-20T05:23:22.778Z,12.80
2023-05-20T05:26:24.692Z,12.80
2023-05-20T05:29:26.526Z,12.80
2023-05-20T05:32:28.628Z,12.90
2023-05-20T05:35:30.480Z,13.00
2023-05-20T05:38:33.008Z,13.20
2023-05-20T05:41:35.095Z,13.30
2023-05-20T05:44:37.275Z,13.40
2023-05-20T05:47:43.057Z,13.40
2023-05-20T05:50:46.384Z,13.50
2023-05-20T05:53:49.983Z,13.60
2023-05-20T05:56:52.496Z,13.70
2023-05-20T05:59:54.884Z,13.60
2023-05-20T06:02:58.274Z,13.70
2023-05-20T06:06:07.724Z,13.80
2023-05-20T06:09:10.082Z,13.90
2023-05-20T06:12:14.008Z,14.00
2023-05-20T06:15:16.708Z,14.00
2023-05-20T06:18:19.094Z,14.00
2023-05-20T06:21:21.557Z,14.20
2023-05-20T06:24:24.613Z,14.20
2023-05-20T06:27:27.740Z,14.20
2023-05-20T06:30:29.661Z,14.20
2023-05-20T06:33:31.691Z,14.30
2023-05-20T06:36:37.538Z,14.40
2023-05-20T06:39:39.970Z,14.40
2023-05-20T06:42:44.202Z,14.50
2023-05-20T06:45:46.131Z,14.60
2023-05-20T06:48:58.468Z,14.60
2023-05-20T06:52:01.146Z,14.70
2023-05-20T06:55:05.229Z,14.70
2023-05-20T06:58:08.957Z,14.80
2023-05-20T07:01:11.390Z,14.90
2023-05-20T07:04:14.553Z,14.80
2023-05-20T07:07:17.457Z,15.00
2023-05-20T07:10:20.639Z,15.10
2023-05-20T07:13:24.180Z,15.00
2023-05-20T07:16:26.572Z,15.00
2023-05-20T07:19:30.596Z,15.20
2023-05-20T07:22:32.574Z,15.30
2023-05-20T07:25:44.288Z,15.30
2023-05-20T07:28:47.137Z,15.40
2023-05-20T07:31:49.219Z,15.50
2023-05-20T07:34:52.197Z,15.60
2023-05-20T07:37:54.198Z,15.60
2023-05-20T07:40:56.944Z,15.40
2023-05-20T07:43:59.284Z,15.30
2023-05-20T07:47:01.590Z,15.20
2023-05-20T07:50:03.599Z,15.10
2023-05-20T07:53:08.657Z,15.20
2023-05-20T07:56:11.020Z,15.30
2023-05-20T07:59:14.194Z,15.40
2023-05-20T08:02:19.651Z,15.30
2023-05-20T08:05:22.790Z,15.40
2023-05-20T08:08:24.760Z,15.50
2023-05-20T08:11:33.979Z,15.70
2023-05-20T08:14:36.161Z,15.70
2023-05-20T08:17:38.908Z,15.90
2023-05-20T08:20:43.797Z,15.80
2023-05-20T08:23:45.829Z,15.80
2023-05-20T08:26:47.589Z,15.70
2023-05-20T08:29:50.956Z,15.70
2023-05-20T08:32:52.802Z,15.60
2023-05-20T08:35:55.579Z,15.60
2023-05-20T08:38:57.585Z,15.70
2023-05-20T08:41:59.569Z,15.60
2023-05-20T08:45:01.893Z,15.60
2023-05-20T08:48:05.464Z,15.40
2023-05-20T08:51:10.712Z,15.50
2023-05-20T08:54:14.810Z,15.20
2023-05-20T08:57:16.826Z,15.40
2023-05-20T09:00:20.263Z,15.40
2023-05-20T09:03:23.869Z,15.50
2023-05-20T09:06:25.717Z,15.60
2023-05-20T09:09:27.470Z,15.60
2023-05-20T09:12:29.264Z,15.50
2023-05-20T09:15:35.637Z,15.40
2023-05-20T09:18:40.843Z,15.50
2023-05-20T09:21:44.475Z,15.40
2023-05-20T09:24:48.586Z,15.40
2023-05-20T09:27:50.627Z,15.60
2023-05-20T09:31:00.204Z,15.70
2023-05-20T09:34:02.791Z,15.60
2023-05-20T09:37:07.302Z,15.80
2023-05-20T09:40:12.313Z,15.70
2023-05-20T09:43:14.256Z,15.90
2023-05-20T09:46:16.826Z,15.90
2023-05-20T09:49:20.533Z,16.10
2023-05-20T09:52:22.879Z,16.10
2023-05-20T09:55:26.076Z,16.30
2023-05-20T09:58:29.503Z,16.50
2023-05-20T10:01:31.876Z,16.50
2023-05-20T10:04:36.079Z,16.70
2023-05-20T10:07:58.969Z,16.70
2023-05-20T10:11:41.344Z,16.80
2023-05-20T10:14:55.060Z,16.80
2023-05-20T10:18:06.173Z,17.00
2023-05-20T10:21:18.827Z,17.00
2023-05-20T10:24:33.315Z,17.00
2023-05-20T10:27:48.171Z,16.90
2023-05-20T10:30:51.062Z,17.00
2023-05-20T10:33:53.958Z,17.70
2023-05-20T10:36:55.828Z,17.80
2023-05-20T10:40:07.119Z,17.90
2023-05-20T10:43:11.380Z,18.00
2023-05-20T10:46:31.799Z,18.20
2023-05-20T10:49:41.629Z,18.40
2023-05-20T10:52:43.445Z,18.80
2023-05-20T10:55:54.596Z,18.70
2023-05-20T10:58:56.357Z,18.40
2023-05-20T11:01:58.546Z,18.30
2023-05-20T11:05:01.326Z,18.20
2023-05-20T11:08:13.722Z,18.30
2023-05-20T11:11:23.231Z,18.10
2023-05-20T11:14:25.373Z,18.10
2023-05-20T11:17:27.280Z,18.10
2023-05-20T11:20:30.232Z,18.30
2023-05-20T11:23:32.070Z,18.40
2023-05-20T11:26:34.520Z,18.40
2023-05-20T11:29:36.935Z,18.40
2023-05-20T11:32:38.820Z,18.50
2023-05-20T11:35:51.958Z,18.30
2023-05-20T11:38:53.738Z,18.60
2023-05-20T11:41:55.704Z,18.40
2023-05-20T11:45:01.297Z,18.50
2023-05-20T11:48:05.235Z,18.40
2023-05-20T11:51:08.878Z,18.60
2023-05-20T11:54:11.333Z,18.80
2023-05-20T11:57:13.274Z,18.80
2023-05-20T12:00:15.146Z,18.70
2023-05-20T12:03:17.452Z,18.50
2023-05-20T12:06:19.676Z,18.40
2023-05-20T12:09:22.433Z,18.70
2023-05-20T12:12:25.459Z,18.60
2023-05-20T12:15:27.299Z,18.80
2023-05-20T12:18:29.208Z,18.80
2023-05-20T12:21:31.517Z,18.80
2023-05-20T12:24:33.364Z,18.60
2023-05-20T12:27:35.208Z,18.70
2023-05-20T12:30:37.317Z,18.70
2023-05-20T12:33:39.147Z,18.60
2023-05-20T12:36:40.942Z,18.80
2023-05-20T12:39:43.311Z,18.90
2023-05-20T12:42:45.271Z,19.00
2023-05-20T12:45:47.266Z,19.00
2023-05-20T12:48:49.141Z,19.00
2023-05-20T12:51:51.131Z,18.80
2023-05-20T12:54:56.918Z,18.90
2023-05-20T12:57:58.731Z,18.90
2023-05-20T13:01:00.605Z,18.90
2023-05-20T13:04:02.422Z,18.90
2023-05-20T13:07:04.691Z,18.80
2023-05-20T13:10:07.591Z,18.60
2023-05-20T13:13:09.439Z,18.40
2023-05-20T13:16:11.939Z,18.50
2023-05-20T13:19:13.927Z,18.20
2023-05-20T13:22:15.839Z,18.30
2023-05-20T13:25:17.928Z,18.30
2023-05-20T13:28:20.837Z,18.50
2023-05-20T13:31:22.860Z,18.60
2023-05-20T13:34:25.096Z,18.80
2023-05-20T13:37:26.870Z,18.40
2023-05-20T13:40:28.751Z,18.30
2023-05-20T13:43:31.947Z,18.50
2023-05-20T13:46:34.029Z,18.70
2023-05-20T13:49:35.886Z,18.80
2023-05-20T13:52:37.776Z,18.90
2023-05-20T13:55:42.673Z,19.00
2023-05-20T13:58:45.377Z,19.20
2023-05-20T14:01:47.349Z,19.30
2023-05-20T14:04:49.199Z,19.10
2023-05-20T14:07:51.125Z,19.00
2023-05-20T14:10:55.876Z,18.90
2023-05-20T14:13:57.773Z,19.00
2023-05-20T14:16:59.780Z,19.00
2023-05-20T14:20:01.727Z,19.10
2023-05-20T14:23:03.608Z,19.20
2023-05-20T14:26:05.481Z,19.20
2023-05-20T14:29:07.336Z,19.10
2023-05-20T14:32:11.467Z,19.20
2023-05-20T14:35:14.197Z,19.00
2023-05-20T14:38:16.772Z,19.00
2023-05-20T14:41:18.663Z,19.10
2023-05-20T14:44:20.823Z,18.90
2023-05-20T14:47:22.729Z,18.90
2023-05-20T14:50:24.662Z,18.80
2023-05-20T14:53:26.529Z,18.80
2023-05-20T14:56:28.353Z,18.80
2023-05-20T14:59:30.085Z,18.70
2023-05-20T15:02:32.070Z,18.70
2023-05-20T15:05:33.821Z,18.70
2023-05-20T15:08:35.662Z,18.70
2023-05-20T15:11:37.457Z,18.80
2023-05-20T15:14:39.287Z,18.90
2023-05-20T15:17:41.292Z,18.80
2023-05-20T15:20:44.520Z,18.50
2023-05-20T15:23:46.729Z,18.50
2023-05-20T15:26:48.634Z,18.40
2023-05-20T15:29:50.486Z,18.70
2023-05-20T15:32:52.389Z,19.00
2023-05-20T15:35:54.243Z,18.80
2023-05-20T15:38:56.026Z,18.60
2023-05-20T15:41:59.690Z,18.50
2023-05-20T15:45:01.652Z,18.90
2023-05-20T15:48:03.649Z,19.20
2023-05-20T15:51:06.012Z,18.90
2023-05-20T15:54:08.097Z,18.70
2023-05-20T15:57:10.173Z,18.50
2023-05-20T16:00:14.493Z,18.40
2023-05-20T16:03:17.765Z,18.50
2023-05-20T16:06:19.627Z,18.40
2023-05-20T16:09:22.069Z,18.40
2023-05-20T16:12:24.095Z,18.30
2023-05-20T16:15:26.810Z,18.40
2023-05-20T16:18:29.599Z,18.40
2023-05-20T16:21:31.617Z,18.20
2023-05-20T16:24:33.468Z,18.10
2023-05-20T16:27:35.395Z,18.00
2023-05-20T16:30:37.369Z,18.10
2023-05-20T16:33:39.298Z,18.00
2023-05-20T16:36:41.203Z,18.10
2023-05-20T16:39:43.191Z,18.00
2023-05-20T16:42:46.267Z,17.90
2023-05-20T16:45:48.310Z,17.80
2023-05-20T16:48:50.173Z,17.80
2023-05-20T16:51:52.294Z,17.70
2023-05-20T16:54:54.234Z,17.70
2023-05-20T16:57:56.071Z,17.70
2023-05-20T17:00:57.934Z,17.60
2023-05-20T17:03:59.806Z,17.50
2023-05-20T17:07:01.724Z,17.30
2023-05-20T17:10:03.837Z,17.30
2023-05-20T17:13:05.820Z,17.30
2023-05-20T17:16:09.899Z,17.30
2023-05-20T17:19:12.103Z,17.40
2023-05-20T17:22:14.065Z,17.30
2023-05-20T17:25:16.869Z,17.20
2023-05-20T17:28:18.714Z,17.20
2023-05-20T17:31:20.706Z,17.20
2023-05-20T17:34:22.574Z,17.20
2023-05-20T17:37:24.489Z,17.20
2023-05-20T17:40:26.383Z,17.10
2023-05-20T17:43:28.269Z,17.10
2023-05-20T17:46:30.151Z,17.00
2023-05-20T17:49:31.963Z,17.00
2023-05-20T17:52:33.780Z,16.90
2023-05-20T17:55:36.583Z,16.90
2023-05-20T17:58:38.725Z,16.90
2023-05-20T18:01:41.647Z,16.90
2023-05-20T18:04:43.538Z,16.90
2023-05-20T18:07:45.966Z,16.90
2023-05-20T18:10:47.943Z,16.90
2023-05-20T18:13:49.742Z,16.80
2023-05-20T18:16:51.641Z,16.80
2023-05-20T18:19:53.914Z,16.70
2023-05-20T18:22:58.529Z,16.80
2023-05-20T18:26:00.616Z,16.80
2023-05-20T18:29:02.374Z,16.70
2023-05-20T18:32:04.611Z,16.60
2023-05-20T18:35:07.083Z,16.60
2023-05-20T18:38:08.852Z,16.70
2023-05-20T18:41:10.845Z,16.60
2023-05-20T18:44:12.692Z,16.60
2023-05-20T18:47:15.141Z,16.60
2023-05-20T18:50:17.018Z,16.50
2023-05-20T18:53:19.299Z,16.50
2023-05-20T18:56:21.597Z,16.50
2023-05-20T18:59:25.156Z,16.40
2023-05-20T19:02:27.141Z,16.40
2023-05-20T19:05:29.968Z,16.40
2023-05-20T19:08:32.392Z,16.40
2023-05-20T19:11:34.177Z,16.50
2023-05-20T19:14:36.187Z,16.30
2023-05-20T19:17:38.226Z,16.40
2023-05-20T19:20:40.105Z,16.30
2023-05-20T19:23:42.112Z,16.20
2023-05-20T19:26:44.529Z,16.30
2023-05-20T19:29:46.398Z,16.20
2023-05-20T19:32:48.239Z,16.20
2023-05-20T19:35:50.145Z,16.10
2023-05-20T19:38:51.952Z,16.10
2023-05-20T19:41:53.991Z,16.10
2023-05-20T19:44:56.383Z,16.00
2023-05-20T19:47:58.693Z,16.00
2023-05-20T19:51:00.696Z,16.00
2023-05-20T19:54:02.496Z,16.00
2023-05-20T19:57:04.486Z,16.00
2023-05-20T20:00:07.241Z,15.90
2023-05-20T20:03:14.726Z,15.90
2023-05-20T20:06:16.617Z,15.90
2023-05-20T20:09:18.439Z,15.90
2023-05-20T20:12:20.281Z,15.80
2023-05-20T20:15:22.146Z,15.80
2023-05-20T20:18:24.291Z,15.80
2023-05-20T20:21:26.349Z,15.80
2023-05-20T20:24:28.180Z,15.80
2023-05-20T20:27:30.046Z,15.70
2023-05-20T20:30:31.946Z,15.80
2023-05-20T20:33:33.779Z,15.70
2023-05-20T20:36:35.699Z,15.70
2023-05-20T20:39:37.512Z,15.70
2023-05-20T20:42:45.149Z,15.70
2023-05-20T20:45:47.133Z,15.70
2023-05-20T20:48:50.214Z,15.60
2023-05-20T20:51:53.182Z,15.60
2023-05-20T20:54:57.022Z,15.60
2023-05-20T20:58:02.603Z,15.60
2023-05-20T21:01:05.696Z,15.60
2023-05-20T21:04:13.919Z,15.50
2023-05-20T21:07:18.915Z,15.50
2023-05-20T21:10:21.188Z,15.50
2023-05-20T21:13:22.979Z,15.50
2023-05-20T21:16:24.937Z,15.50
2023-05-20T21:19:26.866Z,15.50
2023-05-20T21:22:28.767Z,15.40
2023-05-20T21:25:30.616Z,15.40
2023-05-20T21:28:32.447Z,15.40
2023-05-20T21:31:34.309Z,15.30
2023-05-20T21:34:36.212Z,15.30
2023-05-20T21:37:38.082Z,15.20
2023-05-20T21:40:41.384Z,15.40
2023-05-20T21:43:43.182Z,15.30
2023-05-20T21:46:45.093Z,15.30
2023-05-20T21:49:48.129Z,15.30
2023-05-20T21:52:49.984Z,15.30
2023-05-20T21:55:51.955Z,15.20
2023-05-20T21:58:53.746Z,15.20
2023-05-20T22:01:57.973Z,15.20
2023-05-20T22:05:00.382Z,15.30
2023-05-20T22:08:02.243Z,15.30
2023-05-20T22:11:05.517Z,15.30
2023-05-20T22:14:07.609Z,15.30
2023-05-20T22:17:10.490Z,15.30
2023-05-20T22:20:13.118Z,15.20
2023-05-20T22:23:15.730Z,15.20
2023-05-20T22:26:19.694Z,15.20
2023-05-20T22:29:22.284Z,15.00
2023-05-20T22:32:24.210Z,15.00
2023-05-20T22:35:26.181Z,15.00
2023-05-20T22:38:29.578Z,14.90
2023-05-20T22:41:31.455Z,15.00
2023-05-20T22:44:33.307Z,14.90
2023-05-20T22:47:35.525Z,14.90
2023-05-20T22:50:37.346Z,14.90
2023-05-20T22:53:39.181Z,14.80
2023-05-20T22:56:41.061Z,14.70
2023-05-20T22:59:42.940Z,14.70
2023-05-20T23:02:49.580Z,14.70
2023-05-20T23:05:51.668Z,14.60
2023-05-20T23:08:53.516Z,14.60
2023-05-20T23:11:55.368Z,14.50
2023-05-20T23:14:57.160Z,14.50
2023-05-20T23:17:59.026Z,14.50
2023-05-20T23:21:00.921Z,14.40
2023-05-20T23:24:03.366Z,14.50
2023-05-20T23:27:06.245Z,14.40
2023-05-20T23:30:08.794Z,14.30
2023-05-20T23:33:10.846Z,14.30
2023-05-20T23:36:12.721Z,14.40
2023-05-20T23:39:16.223Z,14.30
2023-05-20T23:42:19.956Z,14.20
2023-05-20T23:45:21.794Z,14.20
2023-05-20T23:48:26.359Z,14.30
2023-05-20T23:51:28.187Z,14.20
2023-05-20T23:54:34.272Z,14.20
2023-05-20T23:57:36.205Z,14.10
